DLH6HU EDDB-EDDM
Flight info
| Callsign | DLH6HU |
|---|---|
| Flight time | 1h 4m |
| Altitude | 28000 |
| Route | LUROS4B LUROS Y211 BEBKU Z36 MAREM DCT VESUB T106 TUSTO T108 LANDU LANDU2B |
| Aircraft | A321/M-SDE3FGHIRWY/LB1 |
Departure
| Time | 2026-05-05 20:10 |
|---|---|
| Airport | Berlin Brandenburg Airport (EDDB) |
Arrival
| Time | 2026-05-05 21:15 |
|---|---|
| Airport | Munich Airport (EDDM) |
| Time | Latitude | Longitude | Altitude | Speed | Heading |
|---|---|---|---|---|---|
| 2026-05-05 19:35 | 52.36575 | 13.50461 | 155 ft | 0 kts | 69° |
| 2026-05-05 19:44 | 52.36575 | 13.50460 | 155 ft | 0 kts | 69° |
| 2026-05-05 19:59 | 52.36573 | 13.50452 | 155 ft | 4 kts | 69° |
| 2026-05-05 19:59 | 52.36564 | 13.50411 | 155 ft | 4 kts | 65° |
| 2026-05-05 19:59 | 52.36550 | 13.50374 | 155 ft | 4 kts | 45° |
| 2026-05-05 19:59 | 52.36530 | 13.50352 | 155 ft | 4 kts | 4° |
| 2026-05-05 20:00 | 52.36518 | 13.50353 | 155 ft | 0 kts | 339° |
| 2026-05-05 20:03 | 52.36520 | 13.50351 | 155 ft | 1 kts | 338° |
| 2026-05-05 20:03 | 52.36536 | 13.50317 | 155 ft | 7 kts | 285° |
| 2026-05-05 20:04 | 52.36572 | 13.50241 | 155 ft | 11 kts | 334° |
| 2026-05-05 20:04 | 52.36649 | 13.50190 | 155 ft | 13 kts | 339° |
| 2026-05-05 20:04 | 52.36721 | 13.50105 | 155 ft | 10 kts | 309° |
| 2026-05-05 20:04 | 52.36774 | 13.50025 | 155 ft | 11 kts | 307° |
| 2026-05-05 20:05 | 52.36778 | 13.49942 | 155 ft | 0 kts | 263° |
| 2026-05-05 20:05 | 52.36776 | 13.49937 | 155 ft | 1 kts | 251° |
| 2026-05-05 20:06 | 52.36765 | 13.49887 | 155 ft | 9 kts | 249° |
| 2026-05-05 20:06 | 52.36731 | 13.49749 | 155 ft | 15 kts | 248° |
| 2026-05-05 20:06 | 52.36692 | 13.49585 | 155 ft | 16 kts | 249° |
| 2026-05-05 20:06 | 52.36652 | 13.49410 | 154 ft | 17 kts | 249° |
| 2026-05-05 20:07 | 52.36608 | 13.49226 | 154 ft | 18 kts | 249° |
| 2026-05-05 20:07 | 52.36563 | 13.49034 | 154 ft | 19 kts | 249° |
| 2026-05-05 20:07 | 52.36515 | 13.48831 | 154 ft | 20 kts | 249° |
| 2026-05-05 20:07 | 52.36464 | 13.48615 | 154 ft | 20 kts | 249° |
| 2026-05-05 20:08 | 52.36437 | 13.48458 | 154 ft | 10 kts | 281° |
| 2026-05-05 20:08 | 52.36488 | 13.48389 | 154 ft | 10 kts | 336° |
| 2026-05-05 20:08 | 52.36559 | 13.48345 | 154 ft | 12 kts | 340° |
| 2026-05-05 20:08 | 52.36638 | 13.48296 | 154 ft | 12 kts | 340° |
| 2026-05-05 20:09 | 52.36697 | 13.48265 | 154 ft | 7 kts | 345° |
| 2026-05-05 20:09 | 52.36724 | 13.48311 | 154 ft | 6 kts | 68° |
| 2026-05-05 20:09 | 52.36742 | 13.48388 | 154 ft | 9 kts | 69° |
| 2026-05-05 20:09 | 52.36824 | 13.48729 | 155 ft | 67 kts | 68° |
| 2026-05-05 20:10 | 52.37077 | 13.49800 | 155 ft | 132 kts | 68° |
| 2026-05-05 20:10 | 52.37471 | 13.51475 | 229 ft | 176 kts | 67° |
| 2026-05-05 20:10 | 52.37900 | 13.53316 | 1007 ft | 172 kts | 67° |
| 2026-05-05 20:10 | 52.38332 | 13.55156 | 1704 ft | 177 kts | 68° |
| 2026-05-05 20:11 | 52.38803 | 13.57139 | 1972 ft | 198 kts | 68° |
| 2026-05-05 20:11 | 52.39330 | 13.59358 | 2149 ft | 221 kts | 68° |
| 2026-05-05 20:11 | 52.39920 | 13.61845 | 2439 ft | 244 kts | 69° |
| 2026-05-05 20:11 | 52.40542 | 13.64475 | 3056 ft | 252 kts | 68° |
| 2026-05-05 20:12 | 52.41184 | 13.67186 | 3769 ft | 257 kts | 69° |
| 2026-05-05 20:12 | 52.41836 | 13.69948 | 4413 ft | 263 kts | 69° |
| 2026-05-05 20:12 | 52.42499 | 13.72768 | 5095 ft | 267 kts | 69° |
| 2026-05-05 20:12 | 52.42945 | 13.75727 | 5740 ft | 271 kts | 89° |
| 2026-05-05 20:13 | 52.42636 | 13.78766 | 6376 ft | 274 kts | 114° |
| 2026-05-05 20:13 | 52.41540 | 13.81308 | 6994 ft | 276 kts | 141° |
| 2026-05-05 20:13 | 52.39865 | 13.82812 | 7646 ft | 276 kts | 167° |
| 2026-05-05 20:13 | 52.37961 | 13.83035 | 8304 ft | 276 kts | 185° |
| 2026-05-05 20:14 | 52.36028 | 13.82794 | 8964 ft | 280 kts | 185° |
| 2026-05-05 20:14 | 52.34079 | 13.82539 | 9636 ft | 283 kts | 186° |
| 2026-05-05 20:14 | 52.32101 | 13.82279 | 10117 ft | 292 kts | 186° |
| 2026-05-05 20:14 | 52.30000 | 13.82007 | 10245 ft | 313 kts | 186° |
| 2026-05-05 20:15 | 52.27758 | 13.81720 | 10417 ft | 331 kts | 185° |
| 2026-05-05 20:15 | 52.25435 | 13.81431 | 10889 ft | 337 kts | 185° |
| 2026-05-05 20:15 | 52.23084 | 13.81143 | 11462 ft | 340 kts | 185° |
| 2026-05-05 20:15 | 52.20722 | 13.80854 | 12060 ft | 343 kts | 186° |
| 2026-05-05 20:16 | 52.18332 | 13.80560 | 12655 ft | 345 kts | 185° |
| 2026-05-05 20:16 | 52.15933 | 13.80265 | 13253 ft | 348 kts | 185° |
| 2026-05-05 20:16 | 52.13512 | 13.79963 | 13812 ft | 350 kts | 186° |
| 2026-05-05 20:16 | 52.11083 | 13.79539 | 14336 ft | 352 kts | 190° |
| 2026-05-05 20:17 | 52.08660 | 13.78860 | 14873 ft | 354 kts | 192° |
| 2026-05-05 20:17 | 52.06238 | 13.78112 | 15406 ft | 356 kts | 192° |
| 2026-05-05 20:17 | 52.03802 | 13.77327 | 15934 ft | 358 kts | 192° |
| 2026-05-05 20:17 | 52.01349 | 13.76531 | 16465 ft | 360 kts | 192° |
| 2026-05-05 20:18 | 51.98884 | 13.75739 | 16981 ft | 363 kts | 192° |
| 2026-05-05 20:18 | 51.96403 | 13.74952 | 17513 ft | 365 kts | 192° |
| 2026-05-05 20:18 | 51.93901 | 13.74169 | 18021 ft | 367 kts | 192° |
| 2026-05-05 20:18 | 51.91386 | 13.73394 | 18471 ft | 368 kts | 192° |
| 2026-05-05 20:19 | 51.88899 | 13.72628 | 18905 ft | 370 kts | 192° |
| 2026-05-05 20:19 | 51.86363 | 13.71843 | 19334 ft | 372 kts | 192° |
| 2026-05-05 20:19 | 51.83811 | 13.71051 | 19759 ft | 374 kts | 192° |
| 2026-05-05 20:19 | 51.81247 | 13.70259 | 20185 ft | 376 kts | 192° |
| 2026-05-05 20:20 | 51.78678 | 13.69471 | 20608 ft | 378 kts | 192° |
| 2026-05-05 20:20 | 51.76091 | 13.68680 | 21016 ft | 380 kts | 192° |
| 2026-05-05 20:20 | 51.73489 | 13.67886 | 21418 ft | 382 kts | 192° |
| 2026-05-05 20:20 | 51.70868 | 13.67086 | 21803 ft | 384 kts | 192° |
| 2026-05-05 20:21 | 51.68242 | 13.66285 | 22178 ft | 386 kts | 192° |
| 2026-05-05 20:21 | 51.65597 | 13.65479 | 22560 ft | 387 kts | 192° |
| 2026-05-05 20:21 | 51.62945 | 13.64669 | 22961 ft | 389 kts | 192° |
| 2026-05-05 20:21 | 51.60276 | 13.63850 | 23357 ft | 391 kts | 192° |
| 2026-05-05 20:22 | 51.57603 | 13.63030 | 23692 ft | 393 kts | 192° |
| 2026-05-05 20:22 | 51.54912 | 13.62205 | 24022 ft | 394 kts | 192° |
| 2026-05-05 20:22 | 51.52213 | 13.61380 | 24353 ft | 396 kts | 192° |
| 2026-05-05 20:22 | 51.49495 | 13.60551 | 24680 ft | 398 kts | 192° |
| 2026-05-05 20:23 | 51.46774 | 13.59726 | 24989 ft | 400 kts | 192° |
| 2026-05-05 20:23 | 51.44042 | 13.58834 | 25306 ft | 401 kts | 194° |
| 2026-05-05 20:23 | 51.41327 | 13.57768 | 25613 ft | 403 kts | 196° |
| 2026-05-05 20:23 | 51.38624 | 13.56585 | 25921 ft | 405 kts | 197° |
| 2026-05-05 20:24 | 51.35888 | 13.55332 | 26045 ft | 411 kts | 197° |
| 2026-05-05 20:24 | 51.33120 | 13.54059 | 26176 ft | 417 kts | 197° |
| 2026-05-05 20:24 | 51.30311 | 13.52790 | 26298 ft | 423 kts | 197° |
| 2026-05-05 20:24 | 51.27447 | 13.51529 | 26415 ft | 429 kts | 196° |
| 2026-05-05 20:25 | 51.24556 | 13.50288 | 26556 ft | 433 kts | 196° |
| 2026-05-05 20:25 | 51.21629 | 13.49050 | 26667 ft | 438 kts | 196° |
| 2026-05-05 20:25 | 51.18673 | 13.47803 | 26812 ft | 441 kts | 196° |
| 2026-05-05 20:25 | 51.15692 | 13.46542 | 27015 ft | 442 kts | 196° |
| 2026-05-05 20:26 | 51.12719 | 13.45285 | 27266 ft | 442 kts | 196° |
| 2026-05-05 20:26 | 51.09789 | 13.44045 | 27512 ft | 442 kts | 196° |
| 2026-05-05 20:26 | 51.06785 | 13.42773 | 27732 ft | 441 kts | 196° |
| 2026-05-05 20:26 | 51.03877 | 13.41540 | 27786 ft | 434 kts | 196° |
| 2026-05-05 20:27 | 51.00978 | 13.40309 | 27782 ft | 430 kts | 196° |
| 2026-05-05 20:27 | 50.98094 | 13.39086 | 27792 ft | 428 kts | 196° |
| 2026-05-05 20:27 | 50.95225 | 13.37874 | 27789 ft | 428 kts | 196° |
| 2026-05-05 20:27 | 50.92342 | 13.36660 | 27786 ft | 428 kts | 196° |
| 2026-05-05 20:28 | 50.89459 | 13.35449 | 27780 ft | 428 kts | 196° |
| 2026-05-05 20:28 | 50.86584 | 13.34240 | 27781 ft | 428 kts | 196° |
| 2026-05-05 20:28 | 50.83705 | 13.33024 | 27782 ft | 428 kts | 196° |
| 2026-05-05 20:28 | 50.80834 | 13.31808 | 27769 ft | 428 kts | 195° |
| 2026-05-05 20:29 | 50.77952 | 13.30594 | 27768 ft | 428 kts | 195° |
| 2026-05-05 20:29 | 50.75071 | 13.29389 | 27770 ft | 429 kts | 195° |
| 2026-05-05 20:29 | 50.72192 | 13.28192 | 27772 ft | 429 kts | 195° |
| 2026-05-05 20:29 | 50.69305 | 13.26996 | 27773 ft | 429 kts | 195° |
| 2026-05-05 20:30 | 50.66419 | 13.25804 | 27777 ft | 429 kts | 195° |
| 2026-05-05 20:30 | 50.63529 | 13.24607 | 27781 ft | 429 kts | 195° |
| 2026-05-05 20:30 | 50.60630 | 13.23410 | 27785 ft | 430 kts | 195° |
| 2026-05-05 20:30 | 50.57745 | 13.22225 | 27784 ft | 430 kts | 195° |
| 2026-05-05 20:31 | 50.54845 | 13.21025 | 27771 ft | 431 kts | 195° |
| 2026-05-05 20:31 | 50.51959 | 13.19755 | 27751 ft | 432 kts | 197° |
| 2026-05-05 20:31 | 50.49073 | 13.18367 | 27755 ft | 433 kts | 198° |
| 2026-05-05 20:31 | 50.46206 | 13.16917 | 27764 ft | 434 kts | 198° |
| 2026-05-05 20:32 | 50.43331 | 13.15424 | 27772 ft | 435 kts | 198° |
| 2026-05-05 20:32 | 50.41438 | 13.14441 | 27772 ft | 435 kts | 198° |
| 2026-05-05 20:32 | 50.38560 | 13.12964 | 27773 ft | 435 kts | 198° |
| 2026-05-05 20:32 | 50.35672 | 13.11508 | 27807 ft | 436 kts | 198° |
| 2026-05-05 20:33 | 50.32787 | 13.10075 | 27814 ft | 436 kts | 198° |
| 2026-05-05 20:33 | 50.29896 | 13.08650 | 27822 ft | 436 kts | 198° |
| 2026-05-05 20:33 | 50.26996 | 13.07223 | 27830 ft | 436 kts | 197° |
| 2026-05-05 20:33 | 50.24100 | 13.05799 | 27837 ft | 436 kts | 197° |
| 2026-05-05 20:34 | 50.21212 | 13.04381 | 27843 ft | 436 kts | 197° |
| 2026-05-05 20:34 | 50.18304 | 13.02953 | 27845 ft | 436 kts | 198° |
| 2026-05-05 20:34 | 50.15412 | 13.01526 | 27846 ft | 437 kts | 198° |
| 2026-05-05 20:34 | 50.12518 | 13.00099 | 27844 ft | 437 kts | 197° |
| 2026-05-05 20:35 | 50.09612 | 12.98669 | 27837 ft | 437 kts | 197° |
| 2026-05-05 20:35 | 50.06718 | 12.97245 | 27832 ft | 437 kts | 197° |
| 2026-05-05 20:35 | 50.03839 | 12.95727 | 27801 ft | 439 kts | 204° |
| 2026-05-05 20:35 | 50.01219 | 12.93284 | 27782 ft | 442 kts | 214° |
| 2026-05-05 20:36 | 49.98715 | 12.90470 | 27783 ft | 444 kts | 215° |
| 2026-05-05 20:36 | 49.96218 | 12.87636 | 27786 ft | 446 kts | 215° |
| 2026-05-05 20:36 | 49.93704 | 12.84783 | 27781 ft | 447 kts | 215° |
| 2026-05-05 20:36 | 49.91197 | 12.81920 | 27771 ft | 448 kts | 215° |
| 2026-05-05 20:37 | 49.88704 | 12.79031 | 27822 ft | 448 kts | 215° |
| 2026-05-05 20:37 | 49.86214 | 12.76105 | 27807 ft | 448 kts | 215° |
| 2026-05-05 20:37 | 49.83728 | 12.73183 | 27809 ft | 449 kts | 215° |
| 2026-05-05 20:37 | 49.81242 | 12.70263 | 27812 ft | 448 kts | 215° |
| 2026-05-05 20:38 | 49.78757 | 12.67346 | 27822 ft | 448 kts | 215° |
| 2026-05-05 20:38 | 49.76304 | 12.64466 | 27818 ft | 448 kts | 215° |
| 2026-05-05 20:38 | 49.73796 | 12.61526 | 27817 ft | 448 kts | 215° |
| 2026-05-05 20:38 | 49.71303 | 12.58616 | 27841 ft | 448 kts | 215° |
| 2026-05-05 20:39 | 49.68816 | 12.55729 | 27819 ft | 447 kts | 215° |
| 2026-05-05 20:39 | 49.66357 | 12.52878 | 27825 ft | 447 kts | 215° |
| 2026-05-05 20:39 | 49.63876 | 12.50004 | 27824 ft | 446 kts | 215° |
| 2026-05-05 20:39 | 49.61391 | 12.47128 | 27834 ft | 446 kts | 215° |
| 2026-05-05 20:40 | 49.58911 | 12.44260 | 27827 ft | 446 kts | 215° |
| 2026-05-05 20:40 | 49.56431 | 12.41397 | 27832 ft | 446 kts | 214° |
| 2026-05-05 20:40 | 49.53950 | 12.38534 | 27832 ft | 445 kts | 215° |
| 2026-05-05 20:40 | 49.51470 | 12.35681 | 27842 ft | 445 kts | 214° |
| 2026-05-05 20:41 | 49.48989 | 12.32837 | 27849 ft | 445 kts | 214° |
| 2026-05-05 20:41 | 49.46509 | 12.29997 | 27848 ft | 445 kts | 214° |
| 2026-05-05 20:41 | 49.44024 | 12.27153 | 27841 ft | 444 kts | 214° |
| 2026-05-05 20:41 | 49.41550 | 12.24325 | 27838 ft | 444 kts | 214° |
| 2026-05-05 20:42 | 49.39061 | 12.21481 | 27837 ft | 444 kts | 214° |
| 2026-05-05 20:42 | 49.36594 | 12.18666 | 27843 ft | 444 kts | 214° |
| 2026-05-05 20:42 | 49.34125 | 12.15853 | 27834 ft | 440 kts | 214° |
| 2026-05-05 20:42 | 49.31683 | 12.13075 | 27281 ft | 432 kts | 215° |
| 2026-05-05 20:43 | 49.29276 | 12.10373 | 26614 ft | 427 kts | 214° |
| 2026-05-05 20:43 | 49.26800 | 12.07936 | 25945 ft | 420 kts | 204° |
| 2026-05-05 20:43 | 49.24047 | 12.06558 | 25310 ft | 415 kts | 189° |
| 2026-05-05 20:43 | 49.21179 | 12.06380 | 24682 ft | 412 kts | 175° |
| 2026-05-05 20:44 | 49.18380 | 12.07193 | 24073 ft | 410 kts | 168° |
| 2026-05-05 20:44 | 49.15522 | 12.08171 | 23476 ft | 432 kts | 168° |
| 2026-05-05 20:44 | 49.12547 | 12.09206 | 22770 ft | 442 kts | 168° |
| 2026-05-05 20:44 | 49.09552 | 12.10256 | 21931 ft | 442 kts | 169° |
| 2026-05-05 20:45 | 49.03554 | 12.12359 | 19910 ft | 440 kts | 169° |
| 2026-05-05 20:45 | 49.00598 | 12.13389 | 18869 ft | 431 kts | 169° |
| 2026-05-05 20:45 | 48.97687 | 12.14398 | 17566 ft | 428 kts | 169° |
| 2026-05-05 20:46 | 48.94785 | 12.15396 | 16605 ft | 425 kts | 169° |
| 2026-05-05 20:46 | 48.91919 | 12.16377 | 15774 ft | 419 kts | 169° |
| 2026-05-05 20:46 | 48.89100 | 12.17345 | 14977 ft | 413 kts | 169° |
| 2026-05-05 20:46 | 48.86314 | 12.18308 | 14193 ft | 408 kts | 169° |
| 2026-05-05 20:47 | 48.83569 | 12.19257 | 13412 ft | 403 kts | 169° |
| 2026-05-05 20:47 | 48.80857 | 12.20204 | 12572 ft | 399 kts | 169° |
| 2026-05-05 20:47 | 48.78167 | 12.21158 | 11749 ft | 395 kts | 169° |
| 2026-05-05 20:47 | 48.75502 | 12.22119 | 10943 ft | 392 kts | 169° |
| 2026-05-05 20:48 | 48.72862 | 12.23087 | 10214 ft | 388 kts | 169° |
| 2026-05-05 20:48 | 48.70276 | 12.24050 | 9599 ft | 379 kts | 169° |
| 2026-05-05 20:48 | 48.67769 | 12.24994 | 8927 ft | 372 kts | 169° |
| 2026-05-05 20:48 | 48.65243 | 12.25931 | 8241 ft | 367 kts | 169° |
| 2026-05-05 20:49 | 48.62774 | 12.26793 | 7595 ft | 361 kts | 169° |
| 2026-05-05 20:49 | 48.60397 | 12.27609 | 7225 ft | 349 kts | 170° |
| 2026-05-05 20:49 | 48.58023 | 12.27984 | 6877 ft | 331 kts | 188° |
| 2026-05-05 20:49 | 48.55833 | 12.27457 | 6640 ft | 316 kts | 193° |
| 2026-05-05 20:50 | 48.53716 | 12.26840 | 6402 ft | 305 kts | 194° |
| 2026-05-05 20:50 | 48.51643 | 12.26238 | 6155 ft | 294 kts | 193° |
| 2026-05-05 20:50 | 48.49701 | 12.25684 | 5973 ft | 282 kts | 193° |
| 2026-05-05 20:50 | 48.47804 | 12.25150 | 5798 ft | 272 kts | 195° |
| 2026-05-05 20:51 | 48.46043 | 12.24326 | 5625 ft | 260 kts | 204° |
| 2026-05-05 20:51 | 48.44377 | 12.23377 | 5431 ft | 251 kts | 205° |
| 2026-05-05 20:51 | 48.42773 | 12.22444 | 5270 ft | 242 kts | 207° |
| 2026-05-05 20:51 | 48.41324 | 12.21273 | 5114 ft | 230 kts | 216° |
| 2026-05-05 20:52 | 48.40187 | 12.19732 | 5014 ft | 214 kts | 235° |
| 2026-05-05 20:52 | 48.39479 | 12.17818 | 4998 ft | 209 kts | 252° |
| 2026-05-05 20:52 | 48.39189 | 12.15696 | 5002 ft | 208 kts | 264° |
| 2026-05-05 20:52 | 48.39032 | 12.13539 | 5004 ft | 207 kts | 264° |
| 2026-05-05 20:53 | 48.38877 | 12.11393 | 5001 ft | 206 kts | 264° |
| 2026-05-05 20:53 | 48.38720 | 12.09274 | 4936 ft | 198 kts | 264° |
| 2026-05-05 20:53 | 48.38573 | 12.07282 | 4731 ft | 186 kts | 264° |
| 2026-05-05 20:53 | 48.38434 | 12.05392 | 4499 ft | 179 kts | 264° |
| 2026-05-05 20:54 | 48.38297 | 12.03545 | 4265 ft | 177 kts | 264° |
| 2026-05-05 20:54 | 48.38161 | 12.01719 | 4018 ft | 175 kts | 264° |
| 2026-05-05 20:54 | 48.38028 | 11.99911 | 3798 ft | 174 kts | 264° |
| 2026-05-05 20:54 | 48.37897 | 11.98110 | 3615 ft | 170 kts | 264° |
| 2026-05-05 20:55 | 48.37774 | 11.96369 | 3386 ft | 164 kts | 264° |
| 2026-05-05 20:55 | 48.37653 | 11.94727 | 3179 ft | 149 kts | 264° |
| 2026-05-05 20:55 | 48.37544 | 11.93264 | 2964 ft | 135 kts | 264° |
| 2026-05-05 20:55 | 48.37434 | 11.91838 | 2808 ft | 139 kts | 264° |
| 2026-05-05 20:56 | 48.37327 | 11.90382 | 2629 ft | 142 kts | 265° |
| 2026-05-05 20:56 | 48.37220 | 11.88880 | 2452 ft | 146 kts | 264° |
| 2026-05-05 20:56 | 48.37100 | 11.87338 | 2238 ft | 151 kts | 263° |
| 2026-05-05 20:56 | 48.36985 | 11.85772 | 2028 ft | 150 kts | 263° |
| 2026-05-05 20:57 | 48.36860 | 11.84225 | 1811 ft | 147 kts | 263° |
| 2026-05-05 20:57 | 48.36731 | 11.82708 | 1615 ft | 144 kts | 264° |
| 2026-05-05 20:57 | 48.36622 | 11.81233 | 1483 ft | 138 kts | 264° |
| 2026-05-05 20:57 | 48.36518 | 11.79760 | 2065 ft | 143 kts | 264° |
| 2026-05-05 20:58 | 48.36425 | 11.78265 | 2954 ft | 139 kts | 265° |
| 2026-05-05 20:58 | 48.36334 | 11.76883 | 3544 ft | 137 kts | 264° |
| 2026-05-05 20:58 | 48.36527 | 11.75395 | 3689 ft | 164 kts | 304° |
| 2026-05-05 20:58 | 48.37548 | 11.74367 | 3853 ft | 192 kts | 328° |
| 2026-05-05 20:59 | 48.38820 | 11.73423 | 4014 ft | 216 kts | 330° |
| 2026-05-05 20:59 | 48.40221 | 11.72401 | 4144 ft | 227 kts | 330° |
| 2026-05-05 20:59 | 48.41654 | 11.71355 | 4296 ft | 230 kts | 330° |
| 2026-05-05 20:59 | 48.43094 | 11.70296 | 4511 ft | 230 kts | 329° |
| 2026-05-05 21:00 | 48.44527 | 11.69229 | 4724 ft | 231 kts | 329° |
| 2026-05-05 21:00 | 48.45970 | 11.68145 | 4931 ft | 233 kts | 329° |
| 2026-05-05 21:00 | 48.47402 | 11.67063 | 5017 ft | 233 kts | 329° |
| 2026-05-05 21:00 | 48.48850 | 11.65967 | 5034 ft | 233 kts | 329° |
| 2026-05-05 21:01 | 48.50295 | 11.64872 | 5031 ft | 231 kts | 328° |
| 2026-05-05 21:01 | 48.51705 | 11.63729 | 5006 ft | 228 kts | 318° |
| 2026-05-05 21:01 | 48.52639 | 11.61909 | 5006 ft | 219 kts | 286° |
| 2026-05-05 21:01 | 48.52737 | 11.59668 | 5007 ft | 216 kts | 260° |
| 2026-05-05 21:02 | 48.52376 | 11.57429 | 5006 ft | 217 kts | 255° |
| 2026-05-05 21:02 | 48.51961 | 11.55267 | 5008 ft | 218 kts | 255° |
| 2026-05-05 21:02 | 48.51533 | 11.53070 | 5019 ft | 219 kts | 254° |
| 2026-05-05 21:02 | 48.51104 | 11.50873 | 5019 ft | 219 kts | 255° |
| 2026-05-05 21:03 | 48.50608 | 11.48703 | 4863 ft | 219 kts | 243° |
| 2026-05-05 21:03 | 48.49601 | 11.46991 | 4663 ft | 223 kts | 215° |
| 2026-05-05 21:03 | 48.48123 | 11.46242 | 4498 ft | 231 kts | 186° |
| 2026-05-05 21:03 | 48.46544 | 11.46767 | 4318 ft | 240 kts | 154° |
| 2026-05-05 21:04 | 48.45342 | 11.48527 | 4141 ft | 248 kts | 121° |
| 2026-05-05 21:04 | 48.44861 | 11.51024 | 4034 ft | 252 kts | 95° |
| 2026-05-05 21:04 | 48.44808 | 11.53666 | 4162 ft | 253 kts | 90° |
| 2026-05-05 21:04 | 48.44821 | 11.56310 | 4315 ft | 255 kts | 90° |
| 2026-05-05 21:05 | 48.44846 | 11.58979 | 4468 ft | 256 kts | 90° |
| 2026-05-05 21:05 | 48.44878 | 11.61670 | 4624 ft | 256 kts | 89° |
| 2026-05-05 21:05 | 48.44906 | 11.64353 | 4775 ft | 256 kts | 89° |
| 2026-05-05 21:05 | 48.44935 | 11.67036 | 4943 ft | 256 kts | 89° |
| 2026-05-05 21:06 | 48.44967 | 11.69724 | 5019 ft | 257 kts | 89° |
| 2026-05-05 21:06 | 48.44998 | 11.72412 | 5031 ft | 257 kts | 89° |
| 2026-05-05 21:06 | 48.45026 | 11.75093 | 5032 ft | 256 kts | 89° |
| 2026-05-05 21:06 | 48.45049 | 11.77773 | 4933 ft | 256 kts | 90° |
| 2026-05-05 21:07 | 48.45073 | 11.80443 | 4764 ft | 255 kts | 89° |
| 2026-05-05 21:07 | 48.45094 | 11.83101 | 4582 ft | 251 kts | 89° |
| 2026-05-05 21:07 | 48.45117 | 11.85691 | 4400 ft | 243 kts | 89° |
| 2026-05-05 21:07 | 48.45138 | 11.88194 | 4244 ft | 238 kts | 89° |
| 2026-05-05 21:08 | 48.45152 | 11.90679 | 4079 ft | 235 kts | 90° |
| 2026-05-05 21:08 | 48.45168 | 11.93146 | 4035 ft | 233 kts | 89° |
| 2026-05-05 21:08 | 48.45196 | 11.95565 | 4049 ft | 230 kts | 89° |
| 2026-05-05 21:08 | 48.45234 | 11.97955 | 4078 ft | 226 kts | 88° |
| 2026-05-05 21:09 | 48.45283 | 12.00318 | 4128 ft | 224 kts | 88° |
| 2026-05-05 21:09 | 48.45352 | 12.02625 | 4084 ft | 217 kts | 86° |
| 2026-05-05 21:09 | 48.45344 | 12.04848 | 4088 ft | 209 kts | 104° |
| 2026-05-05 21:09 | 48.44626 | 12.06639 | 4107 ft | 198 kts | 146° |
| 2026-05-05 21:10 | 48.43367 | 12.07367 | 4091 ft | 195 kts | 181° |
| 2026-05-05 21:10 | 48.42084 | 12.07007 | 4093 ft | 184 kts | 211° |
| 2026-05-05 21:10 | 48.41138 | 12.05795 | 4064 ft | 178 kts | 235° |
| 2026-05-05 21:10 | 48.40459 | 12.04245 | 4062 ft | 176 kts | 241° |
| 2026-05-05 21:11 | 48.39920 | 12.02602 | 3993 ft | 178 kts | 246° |
| 2026-05-05 21:11 | 48.39248 | 12.01018 | 3934 ft | 181 kts | 237° |
| 2026-05-05 21:11 | 48.38541 | 11.99465 | 3863 ft | 177 kts | 245° |
| 2026-05-05 21:11 | 48.38143 | 11.97748 | 3649 ft | 168 kts | 256° |
| 2026-05-05 21:12 | 48.37880 | 11.96123 | 3481 ft | 151 kts | 260° |
| 2026-05-05 21:12 | 48.37695 | 11.94649 | 3236 ft | 137 kts | 261° |
| 2026-05-05 21:12 | 48.37593 | 11.93276 | 3003 ft | 135 kts | 261° |
| 2026-05-05 21:12 | 48.37459 | 11.91869 | 2823 ft | 138 kts | 263° |
| 2026-05-05 21:13 | 48.37325 | 11.90400 | 2622 ft | 146 kts | 263° |
| 2026-05-05 21:13 | 48.37215 | 11.88865 | 2432 ft | 148 kts | 264° |
| 2026-05-05 21:13 | 48.37105 | 11.87328 | 2232 ft | 150 kts | 262° |
| 2026-05-05 21:13 | 48.36986 | 11.85762 | 2048 ft | 149 kts | 263° |
| 2026-05-05 21:14 | 48.36860 | 11.84238 | 1794 ft | 145 kts | 263° |
| 2026-05-05 21:14 | 48.36739 | 11.82751 | 1619 ft | 141 kts | 263° |
| 2026-05-05 21:14 | 48.36629 | 11.81314 | 1487 ft | 130 kts | 262° |
| 2026-05-05 21:14 | 48.36551 | 11.80323 | 1478 ft | 56 kts | 263° |
| 2026-05-05 21:15 | 48.36504 | 11.79871 | 1477 ft | 32 kts | 252° |
| 2026-05-05 21:15 | 48.36407 | 11.79615 | 1479 ft | 16 kts | 232° |
| 2026-05-05 21:15 | 48.36341 | 11.79487 | 1483 ft | 15 kts | 234° |
| 2026-05-05 21:15 | 48.36280 | 11.79358 | 1471 ft | 11 kts | 235° |
| 2026-05-05 21:16 | 48.36241 | 11.79304 | 1481 ft | 8 kts | 205° |
| 2026-05-05 21:16 | 48.36174 | 11.79300 | 1477 ft | 11 kts | 175° |
| 2026-05-05 21:16 | 48.36095 | 11.79313 | 1483 ft | 12 kts | 172° |
| 2026-05-05 21:16 | 48.36005 | 11.79331 | 1475 ft | 14 kts | 172° |
| 2026-05-05 21:17 | 48.35909 | 11.79364 | 1479 ft | 15 kts | 158° |
| 2026-05-05 21:17 | 48.35823 | 11.79390 | 1480 ft | 8 kts | 175° |
| 2026-05-05 21:17 | 48.35763 | 11.79399 | 1481 ft | 9 kts | 173° |
| 2026-05-05 21:17 | 48.35692 | 11.79413 | 1483 ft | 11 kts | 173° |
| 2026-05-05 21:18 | 48.35653 | 11.79376 | 1480 ft | 9 kts | 250° |
| 2026-05-05 21:18 | 48.35645 | 11.79301 | 1475 ft | 4 kts | 263° |
| 2026-05-05 21:18 | 48.35644 | 11.79279 | 1475 ft | 0 kts | 263° |